Terminal Aerodrome Forecast
Issued by NWS

Current Version | Previous Version | Text Only | Print | Product List | Glossary On
Versions: 1 2 3 4 5 6 7 8 9 10 11 12 13 14 15 16 17 18 19 20 21 22 23 24
000
FTUS42 KJAX 042322
TAFVQQ
TAF
KVQQ 042322Z 0500/0524 24008KT P6SM FEW050 FEW250
     FM050700 21002KT 1SM BR BKN005
     FM051400 20009KT P6SM SCT005 SCT250
     FM051600 22014G21KT P6SM SCT040 SCT250=

USA.gov is the U.S. government's official web portal to all federal, state and local government web resources and services.